KPRG Airport (Edgar County) Information

FAA: PRG - ICAO: KPRG

KPRG Airport Location

State Illinois
County Edgar
City Paris
KPRG Airport is 5 miles north of Paris, IL.
Latitude 39-41-58.8000N
Longitude 087-40-14.8000W
Elevation 654ft

KPRG Airport METARs

METAR KPRG 201955Z AUTO 21008KT 10SM BKN036 BKN044 BKN050 30/25 A2972 RMK AO2 T02960247
Altimeter 29.72"
Temperature 29.6°C (85.3°F)
Wind 210° at 8KT
Clouds broken at 3,600ft broken at 4,400ft broken at 5,000ft
Visibility 10.0mi
Time observed: 2021-06-20T19:55:00Z

KPRG Airport Details

Status Operational
Activation April 1975
Ownership Public
Usage Public
Chart ST LOUIS
ATC on-site No
Beacon schedule sunset-sunrise
Beacon color clear green

KPRG Airport Contacts

Owner SUP BOARD OF EDGAR CO
Owner address 15551 ARPT RD, PARIS, IL 61944-1944
Owner phone (217) 466-7433
Manager DAN MIZEUR
Manager address PANA COMMUNITY HOSPITAL, 101 EAST 9TH ST., PANA, IL 62557
Manager phone 217-562-2131

KPRG Airport (Edgar County) Radio Frequencies

KPRG (Airport) Radio Frequencies

UNICOM 123
Common traffic advisory frequency (CTAF) 123